createdAt,value
2023-01-30T00:00:28.953Z,20.65
2023-01-30T00:02:59.825Z,21.75
2023-01-30T00:05:30.728Z,20.15
2023-01-30T00:08:02.897Z,21.85
2023-01-30T00:10:39.625Z,21.88
2023-01-30T00:13:10.642Z,21.50
2023-01-30T00:15:43.253Z,27.65
2023-01-30T00:18:14.228Z,20.67
2023-01-30T00:21:06.863Z,24.80
2023-01-30T00:23:39.165Z,23.17
2023-01-30T00:26:11.256Z,21.02
2023-01-30T00:31:15.706Z,25.33
2023-01-30T00:33:48.297Z,24.93
2023-01-30T00:36:19.242Z,23.65
2023-01-30T00:39:09.885Z,25.23
2023-01-30T00:42:00.015Z,24.67
2023-01-30T00:44:49.928Z,30.20
2023-01-30T00:47:20.891Z,24.20
2023-01-30T00:49:51.972Z,22.35
2023-01-30T00:52:23.033Z,24.70
2023-01-30T00:55:00.119Z,24.33
2023-01-30T00:57:31.149Z,25.88
2023-01-30T01:00:02.037Z,27.05
2023-01-30T01:02:33.157Z,29.05
2023-01-30T01:05:05.508Z,28.33
2023-01-30T01:07:56.396Z,28.23
2023-01-30T01:10:47.252Z,28.08
2023-01-30T01:13:18.281Z,26.30
2023-01-30T01:15:49.261Z,28.35
2023-01-30T01:18:20.265Z,23.83
2023-01-30T01:20:51.235Z,26.23
2023-01-30T01:23:22.362Z,22.08
2023-01-30T01:25:53.903Z,24.23
2023-01-30T01:28:25.075Z,25.67
2023-01-30T01:30:56.636Z,27.83
2023-01-30T01:33:31.325Z,30.88
2023-01-30T01:38:47.023Z,26.90
2023-01-30T01:41:20.419Z,25.42
2023-01-30T01:44:05.711Z,25.05
2023-01-30T01:46:40.147Z,32.22
2023-01-30T01:49:28.669Z,26.95
2023-01-30T01:52:17.259Z,24.85
2023-01-30T01:54:53.133Z,26.25
2023-01-30T01:57:50.291Z,26.52
2023-01-30T02:00:23.862Z,26.92
2023-01-30T02:05:36.153Z,27.58
2023-01-30T02:08:12.591Z,28.38
2023-01-30T02:10:49.530Z,27.60
2023-01-30T02:13:21.033Z,24.17
2023-01-30T02:15:56.096Z,28.85
2023-01-30T02:18:28.467Z,28.88
2023-01-30T02:21:03.729Z,26.77
2023-01-30T02:24:18.098Z,31.02
2023-01-30T02:26:51.657Z,27.80
2023-01-30T02:29:47.354Z,24.30
2023-01-30T02:32:56.956Z,29.23
2023-01-30T02:35:44.686Z,26.15
2023-01-30T02:38:24.790Z,25.58
2023-01-30T02:41:04.600Z,25.63
2023-01-30T02:43:46.633Z,27.30
2023-01-30T02:46:30.205Z,24.98
2023-01-30T02:49:36.490Z,28.45
2023-01-30T02:52:13.583Z,28.17
2023-01-30T02:54:44.733Z,27.42
2023-01-30T02:57:22.841Z,28.52
2023-01-30T03:00:03.306Z,25.48
2023-01-30T03:03:19.424Z,27.73
2023-01-30T03:06:19.105Z,24.33
2023-01-30T03:09:33.412Z,25.10
2023-01-30T03:12:24.862Z,24.92
2023-01-30T03:15:04.766Z,26.83
2023-01-30T03:17:45.711Z,26.73
2023-01-30T03:20:22.472Z,23.27
2023-01-30T03:23:15.813Z,21.58
2023-01-30T03:25:48.402Z,23.73
2023-01-30T03:28:23.059Z,26.92
2023-01-30T03:31:03.192Z,24.05
2023-01-30T03:33:46.414Z,28.67
2023-01-30T03:36:18.301Z,27.83
2023-01-30T03:38:49.526Z,24.98
2023-01-30T03:41:20.889Z,25.25
2023-01-30T03:43:52.349Z,24.38
2023-01-30T03:46:24.133Z,25.02
2023-01-30T03:48:55.533Z,24.25
2023-01-30T03:51:26.887Z,24.88
2023-01-30T03:53:58.362Z,24.48
2023-01-30T03:56:31.365Z,26.38
2023-01-30T03:59:02.413Z,22.08
2023-01-30T04:01:41.543Z,22.40
2023-01-30T04:04:14.996Z,23.17
2023-01-30T04:06:46.174Z,25.42
2023-01-30T04:09:17.416Z,23.25
2023-01-30T04:11:53.107Z,24.88
2023-01-30T04:14:24.424Z,24.35
2023-01-30T04:17:19.319Z,24.60
2023-01-30T04:20:10.943Z,22.77
2023-01-30T04:22:46.762Z,25.08
2023-01-30T04:25:18.172Z,32.70
2023-01-30T04:27:49.900Z,25.30
2023-01-30T04:30:28.525Z,24.20
2023-01-30T04:33:15.158Z,26.08
2023-01-30T04:36:00.217Z,26.15
2023-01-30T04:38:37.268Z,24.13
2023-01-30T04:41:09.306Z,22.38
2023-01-30T04:43:50.090Z,22.13
2023-01-30T04:46:31.235Z,24.23
2023-01-30T04:49:12.007Z,21.98
2023-01-30T04:51:43.253Z,24.90
2023-01-30T04:54:14.409Z,24.00
2023-01-30T04:56:46.684Z,23.95
2023-01-30T04:59:18.955Z,27.73
2023-01-30T05:01:52.185Z,23.90
2023-01-30T05:04:24.100Z,23.38
2023-01-30T05:06:55.153Z,25.60
2023-01-30T05:09:26.610Z,23.83
2023-01-30T05:11:57.833Z,21.38
2023-01-30T05:14:31.657Z,26.25
2023-01-30T05:17:13.559Z,23.77
2023-01-30T05:19:44.898Z,25.30
2023-01-30T05:23:00.038Z,27.17
2023-01-30T05:25:31.324Z,20.85
2023-01-30T05:28:03.832Z,20.40
2023-01-30T05:30:40.179Z,20.80
2023-01-30T05:33:11.462Z,22.38
2023-01-30T05:35:48.250Z,24.60
2023-01-30T05:38:19.603Z,22.83
2023-01-30T05:40:59.550Z,23.45
2023-01-30T05:43:31.546Z,23.08
2023-01-30T05:46:04.219Z,20.35
2023-01-30T05:48:38.712Z,23.15
2023-01-30T05:51:17.524Z,21.55
2023-01-30T05:53:48.649Z,22.00
2023-01-30T05:56:20.613Z,22.45
2023-01-30T05:59:01.743Z,23.45
2023-01-30T06:01:33.561Z,20.45
2023-01-30T06:04:06.927Z,20.02
2023-01-30T06:09:24.718Z,17.38
2023-01-30T06:11:57.240Z,20.10
2023-01-30T06:14:28.541Z,19.13
2023-01-30T06:17:19.891Z,21.08
2023-01-30T06:19:51.389Z,19.10
2023-01-30T06:22:22.699Z,20.00
2023-01-30T06:24:53.967Z,18.73
2023-01-30T06:27:25.249Z,19.65
2023-01-30T06:29:56.597Z,19.50
2023-01-30T06:32:32.139Z,22.05
2023-01-30T06:35:08.263Z,18.40
2023-01-30T06:37:59.041Z,15.52
2023-01-30T06:40:30.211Z,18.63
2023-01-30T06:43:01.388Z,19.85
2023-01-30T06:45:32.706Z,21.33
2023-01-30T06:48:26.519Z,18.13
2023-01-30T06:53:34.147Z,18.98
2023-01-30T06:56:05.607Z,20.50
2023-01-30T06:58:36.928Z,17.27
2023-01-30T07:01:08.860Z,19.33
2023-01-30T07:03:41.573Z,19.52
2023-01-30T07:06:14.800Z,18.13
2023-01-30T07:09:06.065Z,19.55
2023-01-30T07:11:40.165Z,18.15
2023-01-30T07:14:13.040Z,15.93
2023-01-30T07:16:45.284Z,15.93
2023-01-30T07:19:22.117Z,15.95
2023-01-30T07:21:53.197Z,18.50
2023-01-30T07:24:25.522Z,16.42
2023-01-30T07:26:56.649Z,19.73
2023-01-30T07:29:28.071Z,20.92
2023-01-30T07:31:59.576Z,17.13
2023-01-30T07:34:35.897Z,18.65
2023-01-30T07:37:27.161Z,15.27
2023-01-30T07:40:23.258Z,14.77
2023-01-30T07:43:06.089Z,14.65
2023-01-30T07:45:41.036Z,14.37
2023-01-30T07:48:17.009Z,15.20
2023-01-30T07:50:50.388Z,14.32
2023-01-30T07:53:22.851Z,19.15
2023-01-30T07:55:54.546Z,15.45
2023-01-30T07:58:25.455Z,14.60
2023-01-30T08:00:58.266Z,16.48
2023-01-30T08:03:30.482Z,14.30
2023-01-30T08:06:21.158Z,14.20
2023-01-30T08:08:52.164Z,15.95
2023-01-30T08:11:25.730Z,13.75
2023-01-30T08:13:56.744Z,15.55
2023-01-30T08:16:35.737Z,15.23
2023-01-30T08:21:52.493Z,14.35
2023-01-30T08:24:45.578Z,15.57
2023-01-30T08:27:16.837Z,12.70
2023-01-30T08:30:08.245Z,15.90
2023-01-30T08:32:39.974Z,14.45
2023-01-30T08:35:12.213Z,14.02
2023-01-30T08:40:18.524Z,15.55
2023-01-30T08:42:52.122Z,12.80
2023-01-30T08:45:25.424Z,15.00
2023-01-30T08:47:59.860Z,12.53
2023-01-30T08:50:32.030Z,18.00
2023-01-30T08:53:07.816Z,15.70
2023-01-30T08:55:39.154Z,12.57
2023-01-30T08:58:13.876Z,12.57
2023-01-30T09:00:47.771Z,15.88
2023-01-30T09:03:41.936Z,14.95
2023-01-30T09:06:34.046Z,16.52
2023-01-30T09:09:05.279Z,14.25
2023-01-30T09:11:36.573Z,16.33
2023-01-30T09:14:07.748Z,15.73
2023-01-30T09:16:39.091Z,16.20
2023-01-30T09:19:12.369Z,14.95
2023-01-30T09:21:43.699Z,17.40
2023-01-30T09:24:19.787Z,15.68
2023-01-30T09:26:50.984Z,13.93
2023-01-30T09:29:23.188Z,14.13
2023-01-30T09:32:14.032Z,12.75
2023-01-30T09:34:45.175Z,14.55
2023-01-30T09:37:16.374Z,14.35
2023-01-30T09:39:54.740Z,13.52
2023-01-30T09:42:38.834Z,15.07
2023-01-30T09:45:28.018Z,15.32
2023-01-30T09:48:09.348Z,13.07
2023-01-30T09:51:02.148Z,15.52
2023-01-30T09:54:14.381Z,16.40
2023-01-30T09:56:45.453Z,13.25
2023-01-30T09:59:27.383Z,16.95
2023-01-30T10:02:28.963Z,13.60
2023-01-30T10:08:36.472Z,15.80
2023-01-30T10:11:30.181Z,13.97
2023-01-30T10:14:37.814Z,14.30
2023-01-30T10:17:30.850Z,12.45
2023-01-30T10:20:33.385Z,14.88
2023-01-30T10:23:28.711Z,16.38
2023-01-30T10:26:24.312Z,15.27
2023-01-30T10:32:10.290Z,14.98
2023-01-30T10:34:45.335Z,13.55
2023-01-30T10:37:39.170Z,15.70
2023-01-30T10:40:34.055Z,13.38
2023-01-30T10:43:31.521Z,18.10
2023-01-30T10:46:34.151Z,14.85
2023-01-30T10:49:22.905Z,13.88
2023-01-30T10:52:33.129Z,16.05
2023-01-30T10:55:10.018Z,13.77
2023-01-30T10:58:15.025Z,15.50
2023-01-30T11:03:40.016Z,13.23
2023-01-30T11:06:36.275Z,13.10
2023-01-30T11:09:09.572Z,17.73
2023-01-30T11:11:55.760Z,13.75
2023-01-30T11:14:28.545Z,13.68
2023-01-30T11:17:01.887Z,16.67
2023-01-30T11:20:00.343Z,16.05
2023-01-30T11:22:35.844Z,16.30
2023-01-30T11:25:34.533Z,15.60
2023-01-30T11:28:08.076Z,14.32
2023-01-30T11:30:39.884Z,14.82
2023-01-30T11:33:24.625Z,15.57
2023-01-30T11:36:37.461Z,15.15
2023-01-30T11:39:18.423Z,16.73
2023-01-30T11:45:06.576Z,15.52
2023-01-30T11:49:05.600Z,16.65
2023-01-30T11:51:48.491Z,14.77
2023-01-30T11:54:28.621Z,15.85
2023-01-30T11:57:04.354Z,15.10
2023-01-30T11:59:48.064Z,15.45
2023-01-30T12:02:22.932Z,17.55
2023-01-30T12:05:30.367Z,14.45
2023-01-30T12:08:41.190Z,18.58
2023-01-30T12:11:46.945Z,15.80
2023-01-30T12:14:36.590Z,19.70
2023-01-30T12:17:46.503Z,16.92
2023-01-30T12:20:35.945Z,20.38
2023-01-30T12:23:35.405Z,22.88
2023-01-30T12:26:10.634Z,14.77
2023-01-30T12:29:00.522Z,16.58
2023-01-30T12:34:46.094Z,16.80
2023-01-30T12:37:41.498Z,17.83
2023-01-30T12:40:39.472Z,15.27
2023-01-30T12:43:37.939Z,16.70
2023-01-30T12:46:36.599Z,14.93
2023-01-30T12:49:41.604Z,20.67
2023-01-30T12:52:36.407Z,40.53
2023-01-30T12:55:33.183Z,39.13
2023-01-30T12:58:34.737Z,34.92
2023-01-30T13:01:19.370Z,48.25
2023-01-30T13:04:18.010Z,80.30
2023-01-30T13:07:19.892Z,69.10
2023-01-30T13:10:05.326Z,63.97
2023-01-30T13:12:44.274Z,69.85
2023-01-30T13:15:40.087Z,63.78
2023-01-30T13:18:23.220Z,66.43
2023-01-30T13:21:17.784Z,75.78
2023-01-30T13:24:22.243Z,74.30
2023-01-30T13:26:56.616Z,67.85
2023-01-30T13:29:46.318Z,69.57
2023-01-30T13:32:49.318Z,70.32
2023-01-30T13:35:36.703Z,64.85
2023-01-30T13:38:13.759Z,66.72
2023-01-30T13:40:53.481Z,72.95
2023-01-30T13:43:36.124Z,68.38
2023-01-30T13:46:17.497Z,72.38
2023-01-30T13:49:41.408Z,66.50
2023-01-30T13:52:27.792Z,69.50
2023-01-30T13:55:37.035Z,68.93
2023-01-30T13:58:40.455Z,77.20
2023-01-30T14:01:16.371Z,77.50
2023-01-30T14:03:48.129Z,77.03
2023-01-30T14:06:40.186Z,75.00
2023-01-30T14:09:30.952Z,73.07
2023-01-30T14:12:09.153Z,76.30
2023-01-30T14:18:38.340Z,74.28
2023-01-30T14:21:23.043Z,72.07
2023-01-30T14:24:05.395Z,82.63
2023-01-30T14:26:52.690Z,75.53
2023-01-30T14:29:44.821Z,71.23
2023-01-30T14:32:19.359Z,81.28
2023-01-30T14:35:06.027Z,68.72
2023-01-30T14:37:41.320Z,72.85
2023-01-30T14:40:36.418Z,63.70
2023-01-30T14:43:45.349Z,64.97
2023-01-30T14:46:27.873Z,72.53
2023-01-30T14:49:38.445Z,71.72
2023-01-30T14:53:04.600Z,72.43
2023-01-30T14:56:08.746Z,74.93
2023-01-30T14:58:40.672Z,72.93
2023-01-30T15:01:16.419Z,80.93
2023-01-30T15:03:57.127Z,79.30
2023-01-30T15:06:52.559Z,82.55
2023-01-30T15:09:50.333Z,79.63
2023-01-30T15:12:33.820Z,80.38
2023-01-30T15:15:29.727Z,81.88
2023-01-30T15:19:05.239Z,84.03
2023-01-30T15:21:51.476Z,79.90
2023-01-30T15:24:47.075Z,87.63
2023-01-30T15:27:21.567Z,84.55
2023-01-30T15:30:04.865Z,94.18
2023-01-30T15:32:59.174Z,97.72
2023-01-30T15:35:32.552Z,106.55
2023-01-30T15:38:04.512Z,99.15
2023-01-30T15:40:39.140Z,114.57
2023-01-30T15:43:32.403Z,109.78
2023-01-30T15:46:39.911Z,111.22
2023-01-30T15:49:30.919Z,107.05
2023-01-30T15:52:07.058Z,105.45
2023-01-30T15:54:39.979Z,109.57
2023-01-30T15:57:47.277Z,118.82
2023-01-30T16:00:51.224Z,117.35
2023-01-30T16:03:38.200Z,121.95
2023-01-30T16:06:23.507Z,126.57
2023-01-30T16:09:07.411Z,126.53
2023-01-30T16:11:48.425Z,125.57
2023-01-30T16:14:39.513Z,127.78
2023-01-30T16:17:14.865Z,121.93
2023-01-30T16:19:46.473Z,117.78
2023-01-30T16:22:31.453Z,127.55
2023-01-30T16:25:25.153Z,134.77
2023-01-30T16:28:04.998Z,125.20
2023-01-30T16:30:36.586Z,141.32
2023-01-30T16:33:13.170Z,140.93
2023-01-30T16:35:51.439Z,130.40
2023-01-30T16:38:40.711Z,138.80
2023-01-30T16:41:50.795Z,141.57
2023-01-30T16:44:27.443Z,131.70
2023-01-30T16:47:13.151Z,142.32
2023-01-30T16:50:08.183Z,135.40
2023-01-30T16:52:47.166Z,125.50
2023-01-30T16:55:28.808Z,132.45
2023-01-30T16:58:50.807Z,142.50
2023-01-30T17:01:25.424Z,141.43
2023-01-30T17:04:22.935Z,133.23
2023-01-30T17:07:02.529Z,138.82
2023-01-30T17:09:50.272Z,151.65
2023-01-30T17:12:32.597Z,142.50
2023-01-30T17:15:33.927Z,136.10
2023-01-30T17:18:26.741Z,139.40
2023-01-30T17:20:59.467Z,137.70
2023-01-30T17:23:35.899Z,146.80
2023-01-30T17:26:08.079Z,143.18
2023-01-30T17:29:01.684Z,138.32
2023-01-30T17:31:37.087Z,151.98
2023-01-30T17:34:10.302Z,135.70
2023-01-30T17:36:45.026Z,142.55
2023-01-30T17:39:22.555Z,155.70
2023-01-30T17:41:54.861Z,144.00
2023-01-30T17:44:50.868Z,139.80
2023-01-30T17:47:23.692Z,135.52
2023-01-30T17:50:16.217Z,143.25
2023-01-30T17:52:49.707Z,129.32
2023-01-30T17:58:07.543Z,139.60
2023-01-30T18:00:38.746Z,142.02
2023-01-30T18:03:13.641Z,148.23
2023-01-30T18:05:45.076Z,153.57
2023-01-30T18:08:16.927Z,153.40
2023-01-30T18:10:47.900Z,151.50
2023-01-30T18:13:19.103Z,151.68
2023-01-30T18:15:51.606Z,144.23
2023-01-30T18:18:23.366Z,161.23
2023-01-30T18:20:57.380Z,146.93
2023-01-30T18:23:28.447Z,152.25
2023-01-30T18:25:59.823Z,154.70
2023-01-30T18:28:32.347Z,147.43
2023-01-30T18:31:06.889Z,153.27
2023-01-30T18:33:38.301Z,147.60
2023-01-30T18:36:11.670Z,160.75
2023-01-30T18:38:43.312Z,158.40
2023-01-30T18:41:16.737Z,141.80
2023-01-30T18:43:52.367Z,155.05
2023-01-30T18:46:23.673Z,157.63
2023-01-30T18:48:54.767Z,150.60
2023-01-30T18:51:33.703Z,149.35
2023-01-30T18:54:05.173Z,148.07
2023-01-30T18:57:06.169Z,151.82
2023-01-30T18:59:37.297Z,142.80
2023-01-30T19:02:20.041Z,147.38
2023-01-30T19:04:51.383Z,147.48
2023-01-30T19:07:23.450Z,148.35
2023-01-30T19:09:54.409Z,142.80
2023-01-30T19:12:43.595Z,147.13
2023-01-30T19:15:36.470Z,140.40
2023-01-30T19:18:30.462Z,148.38
2023-01-30T19:23:48.431Z,145.88
2023-01-30T19:26:21.316Z,130.68
2023-01-30T19:28:52.865Z,137.85
2023-01-30T19:31:24.481Z,146.00
2023-01-30T19:34:02.236Z,136.43
2023-01-30T19:36:34.806Z,138.57
2023-01-30T19:39:07.587Z,144.57
2023-01-30T19:41:39.808Z,137.05
2023-01-30T19:44:13.107Z,130.98
2023-01-30T19:46:44.788Z,122.47
2023-01-30T19:49:16.071Z,147.93
2023-01-30T19:51:47.009Z,128.63
2023-01-30T19:54:18.506Z,139.25
2023-01-30T19:56:50.945Z,124.78
2023-01-30T19:59:22.214Z,140.52
2023-01-30T20:01:53.353Z,132.98
2023-01-30T20:04:24.579Z,135.80
2023-01-30T20:06:55.634Z,131.75
2023-01-30T20:09:26.955Z,132.23
2023-01-30T20:11:58.087Z,130.90
2023-01-30T20:14:29.096Z,122.82
2023-01-30T20:17:00.162Z,118.95
2023-01-30T20:22:16.194Z,118.47
2023-01-30T20:24:47.114Z,118.45
2023-01-30T20:27:17.868Z,117.78
2023-01-30T20:30:29.151Z,122.88
2023-01-30T20:32:59.836Z,106.95
2023-01-30T20:35:30.653Z,112.85
2023-01-30T20:38:03.824Z,112.75
2023-01-30T20:40:35.123Z,115.17
2023-01-30T20:43:07.012Z,111.93
2023-01-30T20:45:38.366Z,116.32
2023-01-30T20:48:09.506Z,116.55
2023-01-30T20:50:40.561Z,109.00
2023-01-30T20:53:12.418Z,110.70
2023-01-30T20:55:43.161Z,109.38
2023-01-30T20:58:14.571Z,107.07
2023-01-30T21:00:45.556Z,104.45
2023-01-30T21:03:36.171Z,107.72
2023-01-30T21:06:07.610Z,102.00
2023-01-30T21:08:40.695Z,102.22
2023-01-30T21:11:14.425Z,107.30
2023-01-30T21:13:46.274Z,105.65
2023-01-30T21:16:26.530Z,100.90
2023-01-30T21:19:02.384Z,111.70
2023-01-30T21:21:38.216Z,111.75
2023-01-30T21:24:14.853Z,96.25
2023-01-30T21:26:48.474Z,99.43
2023-01-30T21:29:22.322Z,105.78
2023-01-30T21:31:54.244Z,108.47
2023-01-30T21:34:25.471Z,96.50
2023-01-30T21:37:23.564Z,99.05
2023-01-30T21:40:12.818Z,89.30
2023-01-30T21:43:01.656Z,89.70
2023-01-30T21:45:33.118Z,96.93
2023-01-30T21:48:04.045Z,93.88
2023-01-30T21:50:35.044Z,90.20
2023-01-30T21:53:25.559Z,93.63
2023-01-30T21:55:57.218Z,89.90
2023-01-30T21:58:28.782Z,96.43
2023-01-30T22:01:10.537Z,90.50
2023-01-30T22:03:41.787Z,87.90
2023-01-30T22:06:14.529Z,92.00
2023-01-30T22:08:45.756Z,85.28
2023-01-30T22:11:21.064Z,99.72
2023-01-30T22:13:52.251Z,83.38
2023-01-30T22:16:26.477Z,88.60
2023-01-30T22:18:59.951Z,81.65
2023-01-30T22:21:34.246Z,86.55
2023-01-30T22:24:24.757Z,92.03
2023-01-30T22:26:55.423Z,91.10
2023-01-30T22:29:26.441Z,89.82
2023-01-30T22:31:57.624Z,85.55
2023-01-30T22:34:28.563Z,97.75
2023-01-30T22:37:00.446Z,83.07
2023-01-30T22:39:31.472Z,86.90
2023-01-30T22:42:02.582Z,93.00
2023-01-30T22:44:33.533Z,89.97
2023-01-30T22:47:05.247Z,96.50
2023-01-30T22:49:37.041Z,83.38
2023-01-30T22:52:08.108Z,85.88
2023-01-30T22:54:39.304Z,78.43
2023-01-30T22:57:10.334Z,84.53
2023-01-30T22:59:41.313Z,80.68
2023-01-30T23:02:12.174Z,81.78
2023-01-30T23:04:42.995Z,78.70
2023-01-30T23:07:15.834Z,82.60
2023-01-30T23:09:46.962Z,82.80
2023-01-30T23:12:36.697Z,78.93
2023-01-30T23:15:28.346Z,81.93
2023-01-30T23:18:17.336Z,79.07
2023-01-30T23:20:48.527Z,71.63
2023-01-30T23:23:39.316Z,72.25
2023-01-30T23:26:10.674Z,74.93
2023-01-30T23:28:42.129Z,78.18
2023-01-30T23:31:18.214Z,77.53
2023-01-30T23:33:49.325Z,71.18
2023-01-30T23:36:23.388Z,76.85
2023-01-30T23:38:57.537Z,73.88
2023-01-30T23:41:31.324Z,76.53
2023-01-30T23:44:03.144Z,67.53
2023-01-30T23:46:36.710Z,71.32
2023-01-30T23:49:13.357Z,77.60
2023-01-30T23:51:45.809Z,75.53
2023-01-30T23:54:36.600Z,76.10
2023-01-30T23:57:07.357Z,73.35
